createdAt,value
2022-08-07T00:00:41.872Z,20.24
2022-08-07T00:03:47.248Z,20.22
2022-08-07T00:06:51.628Z,20.20
2022-08-07T00:10:18.753Z,20.09
2022-08-07T00:13:25.551Z,20.21
2022-08-07T00:16:29.776Z,20.11
2022-08-07T00:19:57.452Z,20.26
2022-08-07T00:22:55.931Z,20.38
2022-08-07T00:26:04.133Z,20.16
2022-08-07T00:29:19.353Z,20.24
2022-08-07T00:32:28.231Z,20.08
2022-08-07T00:35:31.649Z,20.13
2022-08-07T00:38:39.149Z,20.13
2022-08-07T00:41:53.213Z,20.11
2022-08-07T00:44:56.818Z,20.08
2022-08-07T00:48:09.460Z,20.13
2022-08-07T00:51:14.366Z,20.08
2022-08-07T00:54:19.642Z,20.05
2022-08-07T00:57:25.154Z,19.98
2022-08-07T01:00:29.233Z,19.99
2022-08-07T01:03:56.252Z,19.93
2022-08-07T01:06:58.361Z,19.96
2022-08-07T01:10:05.668Z,19.85
2022-08-07T01:13:16.324Z,19.86
2022-08-07T01:16:30.619Z,19.98
2022-08-07T01:19:34.791Z,20.05
2022-08-07T01:22:54.179Z,20.11
2022-08-07T01:26:12.248Z,20.08
2022-08-07T01:29:17.066Z,19.95
2022-08-07T01:32:22.280Z,19.88
2022-08-07T01:35:26.909Z,19.86
2022-08-07T01:38:50.451Z,19.74
2022-08-07T01:41:55.223Z,19.67
2022-08-07T01:45:22.702Z,19.75
2022-08-07T01:48:29.740Z,19.48
2022-08-07T01:52:01.313Z,19.47
2022-08-07T01:55:01.123Z,19.38
2022-08-07T01:58:27.326Z,19.33
2022-08-07T02:02:01.879Z,19.34
2022-08-07T02:05:48.451Z,19.30
2022-08-07T02:08:54.397Z,19.31
2022-08-07T02:12:17.851Z,19.35
2022-08-07T02:15:27.896Z,19.50
2022-08-07T02:18:36.042Z,19.57
2022-08-07T02:21:56.280Z,19.48
2022-08-07T02:25:01.559Z,19.42
2022-08-07T02:28:11.789Z,19.43
2022-08-07T02:31:28.589Z,19.47
2022-08-07T02:34:34.327Z,19.47
2022-08-07T02:37:43.809Z,19.50
2022-08-07T02:40:50.484Z,19.45
2022-08-07T02:43:59.516Z,19.42
2022-08-07T02:47:05.531Z,19.43
2022-08-07T02:50:10.552Z,19.31
2022-08-07T02:53:27.288Z,19.34
2022-08-07T02:56:33.502Z,19.37
2022-08-07T02:59:36.817Z,19.55
2022-08-07T03:02:54.242Z,19.78
2022-08-07T03:06:01.265Z,19.80
2022-08-07T03:09:07.692Z,19.73
2022-08-07T03:12:22.219Z,19.68
2022-08-07T03:15:55.813Z,19.58
2022-08-07T03:18:59.984Z,19.57
2022-08-07T03:22:05.234Z,19.51
2022-08-07T03:25:10.435Z,19.46
2022-08-07T03:28:38.089Z,19.63
2022-08-07T03:31:46.463Z,19.73
2022-08-07T03:35:01.001Z,19.62
2022-08-07T03:38:29.720Z,19.77
2022-08-07T03:41:42.525Z,19.64
2022-08-07T03:44:53.559Z,19.67
2022-08-07T03:48:01.337Z,19.57
2022-08-07T03:51:05.598Z,19.54
2022-08-07T03:54:35.591Z,19.43
2022-08-07T03:58:33.260Z,19.28
2022-08-07T04:01:04.625Z,19.27
2022-08-07T04:04:17.103Z,19.26
2022-08-07T04:07:22.911Z,19.28
2022-08-07T04:10:26.478Z,19.23
2022-08-07T04:14:10.726Z,19.16
2022-08-07T04:16:58.886Z,19.09
2022-08-07T04:20:02.054Z,19.09
2022-08-07T04:23:07.137Z,19.12
2022-08-07T04:26:21.993Z,19.23
2022-08-07T04:29:25.466Z,19.17
2022-08-07T04:32:44.836Z,19.15
2022-08-07T04:35:53.828Z,19.14
2022-08-07T04:38:57.328Z,19.13
2022-08-07T04:42:04.159Z,19.18
2022-08-07T04:45:08.832Z,19.20
2022-08-07T04:48:28.269Z,19.25
2022-08-07T04:51:37.521Z,19.31
2022-08-07T04:55:15.039Z,19.17
2022-08-07T05:02:30.106Z,19.17
2022-08-07T05:05:58.694Z,19.31
2022-08-07T05:09:45.762Z,19.38
2022-08-07T05:13:01.841Z,19.40
2022-08-07T05:16:24.459Z,19.55
2022-08-07T05:19:45.224Z,19.64
2022-08-07T05:22:51.707Z,19.81
2022-08-07T05:26:13.120Z,19.83
2022-08-07T05:29:23.907Z,19.93
2022-08-07T05:32:28.720Z,20.13
2022-08-07T05:35:41.561Z,20.20
2022-08-07T05:39:01.293Z,20.34
2022-08-07T05:42:12.309Z,20.30
2022-08-07T05:45:46.476Z,20.28
2022-08-07T05:48:58.465Z,20.41
2022-08-07T05:52:04.813Z,20.60
2022-08-07T05:55:10.873Z,20.48
2022-08-07T05:58:17.132Z,20.65
2022-08-07T06:01:41.781Z,20.57
2022-08-07T06:04:53.712Z,20.64
2022-08-07T06:08:14.916Z,20.45
2022-08-07T06:11:23.797Z,20.53
2022-08-07T06:14:28.710Z,20.83
2022-08-07T06:17:38.089Z,20.74
2022-08-07T06:20:50.404Z,20.80
2022-08-07T06:24:50.729Z,21.00
2022-08-07T06:28:00.335Z,21.20
2022-08-07T06:30:54.313Z,21.17
2022-08-07T06:33:57.849Z,21.09
2022-08-07T06:37:02.571Z,21.30
2022-08-07T06:40:17.140Z,21.20
2022-08-07T06:43:26.841Z,20.89
2022-08-07T06:46:42.860Z,21.09
2022-08-07T06:49:58.208Z,21.24
2022-08-07T06:53:04.091Z,21.33
2022-08-07T06:56:14.835Z,21.51
2022-08-07T07:00:12.531Z,21.41
2022-08-07T07:02:48.943Z,21.35
2022-08-07T07:06:03.450Z,21.46
2022-08-07T07:09:36.634Z,21.63
2022-08-07T07:12:48.935Z,21.84
2022-08-07T07:16:01.268Z,21.88
2022-08-07T07:19:54.581Z,22.02
2022-08-07T07:22:34.016Z,22.18
2022-08-07T07:26:35.008Z,22.29
2022-08-07T07:29:56.128Z,22.03
2022-08-07T07:32:40.580Z,22.14
2022-08-07T07:36:05.048Z,22.63
2022-08-07T07:39:12.051Z,22.88
2022-08-07T07:42:19.838Z,23.31
2022-08-07T07:46:39.874Z,23.20
2022-08-07T07:48:59.975Z,23.96
2022-08-07T07:52:13.868Z,24.13
2022-08-07T07:55:20.891Z,24.20
2022-08-07T07:58:40.792Z,24.40
2022-08-07T08:02:02.945Z,24.77
2022-08-07T08:05:14.252Z,24.73
2022-08-07T08:08:34.720Z,24.90
2022-08-07T08:11:59.492Z,25.14
2022-08-07T08:15:06.996Z,24.80
2022-08-07T08:18:17.429Z,25.33
2022-08-07T08:21:55.842Z,25.36
2022-08-07T08:25:26.884Z,26.06
2022-08-07T08:28:48.125Z,26.43
2022-08-07T08:32:04.720Z,25.91
2022-08-07T08:35:28.475Z,25.87
2022-08-07T08:38:40.540Z,26.17
2022-08-07T08:42:09.289Z,26.04
2022-08-07T08:45:19.860Z,25.87
2022-08-07T08:48:32.352Z,25.93
2022-08-07T08:52:14.459Z,25.83
2022-08-07T08:55:53.198Z,25.68
2022-08-07T08:58:50.610Z,26.05
2022-08-07T09:02:11.304Z,25.87
2022-08-07T09:05:43.621Z,25.59
2022-08-07T09:08:46.892Z,25.84
2022-08-07T09:12:30.681Z,25.99
2022-08-07T09:16:25.843Z,26.21
2022-08-07T09:19:53.525Z,25.93
2022-08-07T09:24:30.370Z,26.10
2022-08-07T09:26:31.305Z,25.67
2022-08-07T09:30:08.482Z,25.68
2022-08-07T09:33:41.076Z,25.77
2022-08-07T09:37:00.050Z,26.37
2022-08-07T09:40:40.550Z,26.55
2022-08-07T09:44:06.563Z,27.10
2022-08-07T09:47:58.227Z,27.65
2022-08-07T09:52:10.856Z,28.07
2022-08-07T09:54:53.598Z,28.16
2022-08-07T09:58:05.605Z,28.46
2022-08-07T10:01:52.148Z,29.25
2022-08-07T10:05:59.587Z,29.92
2022-08-07T10:09:07.441Z,29.17
2022-08-07T10:12:26.381Z,28.64
2022-08-07T10:16:10.812Z,29.49
2022-08-07T10:19:37.759Z,29.22
2022-08-07T10:23:07.650Z,30.23
2022-08-07T10:26:24.704Z,30.74
2022-08-07T10:30:00.779Z,30.63
2022-08-07T10:33:14.992Z,30.80
2022-08-07T10:36:29.973Z,31.32
2022-08-07T10:40:10.804Z,31.39
2022-08-07T10:43:34.776Z,31.91
2022-08-07T10:46:50.230Z,31.12
2022-08-07T10:49:53.348Z,31.09
2022-08-07T10:53:12.693Z,31.54
2022-08-07T10:56:58.061Z,30.76
2022-08-07T11:00:36.172Z,32.08
2022-08-07T11:03:55.204Z,33.00
2022-08-07T11:07:59.565Z,33.92
2022-08-07T11:10:59.804Z,33.70
2022-08-07T11:14:57.531Z,34.64
2022-08-07T11:18:15.058Z,34.79
2022-08-07T11:21:46.971Z,34.47
2022-08-07T11:24:52.539Z,34.53
2022-08-07T11:28:08.013Z,34.98
2022-08-07T11:31:37.406Z,34.65
2022-08-07T11:34:48.059Z,34.87
2022-08-07T11:38:10.158Z,33.86
2022-08-07T11:41:29.688Z,33.37
2022-08-07T11:45:20.521Z,32.54
2022-08-07T11:49:27.446Z,32.38
2022-08-07T11:52:52.275Z,31.44
2022-08-07T11:56:27.344Z,31.69
2022-08-07T12:00:12.652Z,31.20
2022-08-07T12:03:53.442Z,30.84
2022-08-07T12:07:20.190Z,30.90
2022-08-07T12:10:45.300Z,31.08
2022-08-07T12:14:08.566Z,31.35
2022-08-07T12:17:19.699Z,31.18
2022-08-07T12:20:45.129Z,31.59
2022-08-07T12:24:05.343Z,32.19
2022-08-07T12:27:16.807Z,32.19
2022-08-07T12:30:24.363Z,31.68
2022-08-07T12:33:56.622Z,32.94
2022-08-07T12:36:58.799Z,32.68
2022-08-07T12:40:03.183Z,32.52
2022-08-07T12:43:09.760Z,32.87
2022-08-07T12:46:26.339Z,32.83
2022-08-07T12:50:04.467Z,33.10
2022-08-07T12:53:18.841Z,33.89
2022-08-07T12:56:50.875Z,33.73
2022-08-07T12:59:56.021Z,34.21
2022-08-07T13:03:53.507Z,34.14
2022-08-07T13:08:12.913Z,34.18
2022-08-07T13:11:01.022Z,34.96
2022-08-07T13:14:29.228Z,34.43
2022-08-07T13:17:52.653Z,33.84
2022-08-07T13:21:14.838Z,33.34
2022-08-07T13:24:53.902Z,33.62
2022-08-07T13:28:18.289Z,33.85
2022-08-07T13:31:32.057Z,33.42
2022-08-07T13:35:21.442Z,32.49
2022-08-07T13:38:30.550Z,32.04
2022-08-07T13:41:48.607Z,33.00
2022-08-07T13:45:20.507Z,32.54
2022-08-07T13:48:27.565Z,32.76
2022-08-07T13:52:05.133Z,33.38
2022-08-07T13:55:11.054Z,33.39
2022-08-07T13:58:35.565Z,33.22
2022-08-07T14:01:59.230Z,33.12
2022-08-07T14:05:15.515Z,32.39
2022-08-07T14:08:21.585Z,32.76
2022-08-07T14:11:28.475Z,32.64
2022-08-07T14:15:00.746Z,31.93
2022-08-07T14:18:28.702Z,32.24
2022-08-07T14:22:01.682Z,32.28
2022-08-07T14:25:15.047Z,32.10
2022-08-07T14:28:20.359Z,32.70
2022-08-07T14:31:43.082Z,32.78
2022-08-07T14:35:01.651Z,32.58
2022-08-07T14:38:09.265Z,32.25
2022-08-07T14:42:20.663Z,31.86
2022-08-07T14:45:21.795Z,31.51
2022-08-07T14:48:33.266Z,31.26
2022-08-07T14:52:04.611Z,31.19
2022-08-07T14:55:03.850Z,31.21
2022-08-07T14:58:07.932Z,31.15
2022-08-07T15:01:42.685Z,30.81
2022-08-07T15:04:55.159Z,30.54
2022-08-07T15:07:59.125Z,30.53
2022-08-07T15:11:15.054Z,30.47
2022-08-07T15:17:58.995Z,30.00
2022-08-07T15:25:13.407Z,29.50
2022-08-07T15:28:36.295Z,29.35
2022-08-07T15:34:58.322Z,29.41
2022-08-07T15:38:17.261Z,29.15
2022-08-07T15:44:52.975Z,29.12
2022-08-07T15:48:05.090Z,28.88
2022-08-07T15:51:12.001Z,28.73
2022-08-07T15:54:16.522Z,28.66
2022-08-07T15:57:28.131Z,28.58
2022-08-07T16:00:51.795Z,28.23
2022-08-07T16:04:02.309Z,28.17
2022-08-07T16:08:29.226Z,28.25
2022-08-07T16:10:33.699Z,28.23
2022-08-07T16:14:02.919Z,28.07
2022-08-07T16:18:00.813Z,28.15
2022-08-07T16:22:03.174Z,27.96
2022-08-07T16:24:52.542Z,27.93
2022-08-07T16:29:18.587Z,27.94
2022-08-07T16:32:03.818Z,27.90
2022-08-07T16:35:56.533Z,27.81
2022-08-07T16:39:40.470Z,27.81
2022-08-07T16:43:24.162Z,27.60
2022-08-07T16:47:12.427Z,27.54
2022-08-07T16:50:38.995Z,27.38
2022-08-07T16:54:19.023Z,27.28
2022-08-07T16:58:01.771Z,27.16
2022-08-07T17:01:34.293Z,27.17
2022-08-07T17:05:05.133Z,27.13
2022-08-07T17:08:09.044Z,27.00
2022-08-07T17:11:27.997Z,26.90
2022-08-07T17:14:57.263Z,26.78
2022-08-07T17:18:27.023Z,26.78
2022-08-07T17:21:51.219Z,26.72
2022-08-07T17:25:04.459Z,26.70
2022-08-07T17:28:20.211Z,26.54
2022-08-07T17:31:44.205Z,26.51
2022-08-07T17:35:51.557Z,26.47
2022-08-07T17:38:58.704Z,26.42
2022-08-07T17:42:11.873Z,26.25
2022-08-07T17:45:23.555Z,26.19
2022-08-07T17:48:45.178Z,26.00
2022-08-07T17:52:00.548Z,25.96
2022-08-07T17:55:12.535Z,25.86
2022-08-07T17:58:30.605Z,25.77
2022-08-07T18:01:43.554Z,25.71
2022-08-07T18:04:55.999Z,25.61
2022-08-07T18:08:23.905Z,25.47
2022-08-07T18:12:17.523Z,25.43
2022-08-07T18:15:32.933Z,25.31
2022-08-07T18:21:05.867Z,25.23
2022-08-07T18:22:31.313Z,25.21
2022-08-07T18:25:42.987Z,25.10
2022-08-07T18:30:05.470Z,25.03
2022-08-07T18:32:53.276Z,25.02
2022-08-07T18:36:33.001Z,25.02
2022-08-07T18:40:06.629Z,25.07
2022-08-07T18:43:16.289Z,25.15
2022-08-07T18:46:51.584Z,25.23
2022-08-07T18:50:40.701Z,25.16
2022-08-07T18:53:57.631Z,25.22
2022-08-07T18:57:31.333Z,25.20
2022-08-07T19:00:50.026Z,25.29
2022-08-07T19:04:09.554Z,25.30
2022-08-07T19:07:34.495Z,25.30
2022-08-07T19:10:51.894Z,25.28
2022-08-07T19:14:26.174Z,25.22
2022-08-07T19:18:07.148Z,25.18
2022-08-07T19:21:44.123Z,25.17
2022-08-07T19:24:50.616Z,25.03
2022-08-07T19:28:30.059Z,24.98
2022-08-07T19:32:07.837Z,24.94
2022-08-07T19:35:19.637Z,24.97
2022-08-07T19:38:29.801Z,25.05
2022-08-07T19:42:05.511Z,25.14
2022-08-07T19:45:10.015Z,25.04
2022-08-07T19:48:19.118Z,25.10
2022-08-07T19:51:53.162Z,25.07
2022-08-07T19:54:57.210Z,25.01
2022-08-07T19:58:12.566Z,24.91
2022-08-07T20:01:18.469Z,24.73
2022-08-07T20:04:31.556Z,24.73
2022-08-07T20:07:47.498Z,24.68
2022-08-07T20:11:03.756Z,24.67
2022-08-07T20:14:20.956Z,24.60
2022-08-07T20:17:38.793Z,24.55
2022-08-07T20:20:43.361Z,24.66
2022-08-07T20:23:54.078Z,24.57
2022-08-07T20:27:02.841Z,24.51
2022-08-07T20:30:11.534Z,24.46
2022-08-07T20:33:36.163Z,24.37
2022-08-07T20:36:44.175Z,24.29
2022-08-07T20:40:03.240Z,24.26
2022-08-07T20:43:19.716Z,24.19
2022-08-07T20:46:42.896Z,24.03
2022-08-07T20:50:00.919Z,23.93
2022-08-07T20:53:06.211Z,23.82
2022-08-07T20:56:12.610Z,23.96
2022-08-07T21:00:05.226Z,24.03
2022-08-07T21:03:03.314Z,23.96
2022-08-07T21:06:21.426Z,23.83
2022-08-07T21:09:53.003Z,23.81
2022-08-07T21:13:03.544Z,23.83
2022-08-07T21:16:09.355Z,23.86
2022-08-07T21:19:14.498Z,23.86
2022-08-07T21:22:19.981Z,23.94
2022-08-07T21:25:56.760Z,23.95
2022-08-07T21:29:12.838Z,23.90
2022-08-07T21:32:43.866Z,23.92
2022-08-07T21:36:05.047Z,23.82
2022-08-07T21:39:45.973Z,23.61
2022-08-07T21:42:52.830Z,23.62
2022-08-07T21:46:24.513Z,23.45
2022-08-07T21:50:02.276Z,23.54
2022-08-07T21:53:17.320Z,23.56
2022-08-07T21:56:48.041Z,23.59
2022-08-07T22:00:22.387Z,23.35
2022-08-07T22:03:42.124Z,23.25
2022-08-07T22:07:14.824Z,23.03
2022-08-07T22:10:24.708Z,22.89
2022-08-07T22:13:51.899Z,22.93
2022-08-07T22:17:01.142Z,22.90
2022-08-07T22:20:23.550Z,22.78
2022-08-07T22:23:32.680Z,22.68
2022-08-07T22:26:53.467Z,22.62
2022-08-07T22:30:18.467Z,22.52
2022-08-07T22:33:53.210Z,22.54
2022-08-07T22:37:09.462Z,22.48
2022-08-07T22:40:25.182Z,22.43
2022-08-07T22:43:39.454Z,22.45
2022-08-07T22:47:08.832Z,22.52
2022-08-07T22:50:33.010Z,22.31
2022-08-07T22:54:07.559Z,22.30
2022-08-07T22:57:45.185Z,22.30
2022-08-07T23:00:53.877Z,22.21
2022-08-07T23:04:35.437Z,22.20
2022-08-07T23:08:07.344Z,22.06
2022-08-07T23:11:59.320Z,21.94
2022-08-07T23:15:05.353Z,21.95
2022-08-07T23:18:20.441Z,21.88
2022-08-07T23:21:39.865Z,21.82
2022-08-07T23:25:04.640Z,21.58
2022-08-07T23:28:36.739Z,21.55
2022-08-07T23:34:20.188Z,21.77
2022-08-07T23:35:53.841Z,21.77
2022-08-07T23:39:22.181Z,21.79
2022-08-07T23:42:53.320Z,21.94
2022-08-07T23:46:12.536Z,21.84
2022-08-07T23:49:57.717Z,21.86
2022-08-07T23:53:08.701Z,22.02
2022-08-07T23:56:54.115Z,21.93
